Tice, Illinois
Current Conditions -  °F | °C
As of 8:52 AM on Monday 22 Dec 2014 (Local Time) from KSPI Reporting Station
Moderate Rain Moderate Rain  
Wind Chill: 28°   Ceiling: 4200
Heat Index: 37°   Visibility: 2.5mi
Dew Point: 34°   Wind: 16mph
Humidity: 89%   Direction: 110°ESE
Pressure: 29.78"   Gusts: NA
Location:  40.0452°N, 89.8548°W
Report Text: KSPI 221452Z 11014KT 2 1/2SM RA BR SCT009 BKN042 OVC055 03/01 A2978 RMK AO2 SLP086 P0006 60010 T00280011 58018
Loading
Personal Weather Stations






























Interactive Weather Map New forecast layout! Learn more

10-Day Weather Forecast

Advertisements
Track Severe Weather on mobile